PWSweather.com
Personal Weather Stations
Station Observations
TARRYHILL
Tarrytown, NY 10591

Tarrytown, NY 10591

Lat: 41.05185, Lon: -73.85296

Elevation: 341

Station Type: Davis Vantage Vue

www.tarrytownnyweather.com

High Low Average
Temperature 33.5°F0.8°F 23.2°F-4.9°F 27.3°F-2.6°F
Dew Point 25.5°F-3.6°F 19.4°F-7.0°F 22.6°F-5.2°F
Winds 3.0 mph WSW4.8 mph WSW Calm Calm 0.3 mph 0.5 mph
Wind Gusts 6.0 mph9.7 mph -- 1.2 mph1.9 mph
Humidity 89% 71% 82%
Pressure 29.75 in1007.50 in 29.56 in1001.00 in -
Precipitation 0.00 in0.00 in - -
Hour Temp Dew Point Humidity Winds Wind Gusts Pressure Precip Precip Rate Daily Precip Total
12:00 AM 24.9°F-3.9°C 22.1°F-5.5°C 89% Calm Calm -- 29.75 in1007.5 mb - 0.00 in0.0 mm 0.00 in0.0 mm
12:10 AM 24.8°F-4.0°C 22.0°F-5.6°C 89% 0.1 mph NNW0.2 kmh NNW -- 29.75 in1007.5 mb - 0.00 in0.0 mm 0.00 in0.0 mm
12:20 AM 24.6°F-4.1°C 21.9°F-5.6°C 89% 0.2 mph NW0.3 kmh NW 1.0 mph1.6 kmh 29.74 in1007.1 mb - 0.00 in0.0 mm 0.00 in0.0 mm
12:30 AM 24.6°F-4.1°C 21.8°F-5.7°C 89% Calm Calm -- 29.75 in1007.5 mb - 0.00 in0.0 mm 0.00 in0.0 mm
12:40 AM 24.6°F-4.1°C 21.8°F-5.7°C 89% 0.1 mph NNW0.2 kmh NNW 1.0 mph1.6 kmh 29.75 in1007.5 mb - 0.00 in0.0 mm 0.00 in0.0 mm
12:50 AM 24.6°F-4.1°C 21.6°F-5.8°C 88% 0.1 mph ESE0.2 kmh ESE 1.0 mph1.6 kmh 29.74 in1007.1 mb - 0.00 in0.0 mm 0.00 in0.0 mm
01:00 AM 24.5°F-4.2°C 21.2°F-6.0°C 87% 0.6 mph E1.0 kmh E 1.0 mph1.6 kmh 29.74 in1007.1 mb - 0.00 in0.0 mm 0.00 in0.0 mm
01:10 AM 24.4°F-4.2°C 21.1°F-6.1°C 87% 0.5 mph NE0.8 kmh NE 3.0 mph4.8 kmh 29.73 in1006.8 mb - 0.00 in0.0 mm 0.00 in0.0 mm
01:20 AM 24.4°F-4.2°C 21.1°F-6.1°C 87% 0.5 mph N0.8 kmh N 2.0 mph3.2 kmh 29.73 in1006.8 mb - 0.00 in0.0 mm 0.00 in0.0 mm
01:30 AM 24.3°F-4.3°C 21.0°F-6.1°C 87% 0.4 mph SE0.6 kmh SE -- 29.72 in1006.4 mb - 0.00 in0.0 mm 0.00 in0.0 mm
01:40 AM 24.3°F-4.3°C 20.7°F-6.3°C 86% Calm Calm 1.0 mph1.6 kmh 29.73 in1006.8 mb - 0.00 in0.0 mm 0.00 in0.0 mm
01:50 AM 24.3°F-4.3°C 20.7°F-6.3°C 86% Calm Calm -- 29.74 in1007.1 mb - 0.00 in0.0 mm 0.00 in0.0 mm
02:00 AM 24.2°F-4.3°C 20.6°F-6.3°C 86% 0.7 mph E1.1 kmh E 2.0 mph3.2 kmh 29.73 in1006.8 mb - 0.00 in0.0 mm 0.00 in0.0 mm
02:10 AM 24.2°F-4.3°C 20.6°F-6.3°C 86% 0.4 mph E0.6 kmh E 3.0 mph4.8 kmh 29.73 in1006.8 mb - 0.00 in0.0 mm 0.00 in0.0 mm
02:20 AM 24.1°F-4.4°C 20.3°F-6.5°C 85% Calm Calm -- 29.73 in1006.8 mb - 0.00 in0.0 mm 0.00 in0.0 mm
02:30 AM 24.2°F-4.3°C 20.3°F-6.5°C 85% Calm Calm 1.0 mph1.6 kmh 29.72 in1006.4 mb - 0.00 in0.0 mm 0.00 in0.0 mm
02:40 AM 24.1°F-4.4°C 20.5°F-6.4°C 86% Calm Calm 1.0 mph1.6 kmh 29.72 in1006.4 mb - 0.00 in0.0 mm 0.00 in0.0 mm
02:50 AM 23.9°F-4.5°C 20.0°F-6.7°C 85% Calm Calm 1.0 mph1.6 kmh 29.72 in1006.4 mb - 0.00 in0.0 mm 0.00 in0.0 mm
03:00 AM 23.9°F-4.5°C 20.0°F-6.7°C 85% Calm Calm 1.0 mph1.6 kmh 29.72 in1006.4 mb - 0.00 in0.0 mm 0.00 in0.0 mm
03:10 AM 23.9°F-4.5°C 20.3°F-6.5°C 86% Calm Calm -- 29.72 in1006.4 mb - 0.00 in0.0 mm 0.00 in0.0 mm
03:20 AM 23.8°F-4.6°C 20.2°F-6.6°C 86% Calm Calm -- 29.71 in1006.1 mb - 0.00 in0.0 mm 0.00 in0.0 mm
03:30 AM 23.7°F-4.6°C 20.1°F-6.6°C 86% Calm Calm 1.0 mph1.6 kmh 29.71 in1006.1 mb - 0.00 in0.0 mm 0.00 in0.0 mm
03:40 AM 23.6°F-4.7°C 20.0°F-6.7°C 86% 0.1 mph NW0.2 kmh NW 1.0 mph1.6 kmh 29.70 in1005.8 mb - 0.00 in0.0 mm 0.00 in0.0 mm
03:50 AM 23.7°F-4.6°C 20.4°F-6.4°C 87% 0.1 mph ESE0.2 kmh ESE 1.0 mph1.6 kmh 29.70 in1005.8 mb - 0.00 in0.0 mm 0.00 in0.0 mm
04:00 AM 23.6°F-4.7°C 20.3°F-6.5°C 87% 0.1 mph N0.2 kmh N 1.0 mph1.6 kmh 29.70 in1005.8 mb - 0.00 in0.0 mm 0.00 in0.0 mm
04:10 AM 23.5°F-4.7°C 20.2°F-6.6°C 87% Calm Calm 1.0 mph1.6 kmh 29.69 in1005.4 mb - 0.00 in0.0 mm 0.00 in0.0 mm
04:20 AM 23.5°F-4.7°C 20.2°F-6.6°C 87% Calm Calm -- 29.69 in1005.4 mb - 0.00 in0.0 mm 0.00 in0.0 mm
04:30 AM 23.5°F-4.7°C 20.2°F-6.6°C 87% 0.1 mph NW0.2 kmh NW -- 29.68 in1005.1 mb - 0.00 in0.0 mm 0.00 in0.0 mm
04:40 AM 23.4°F-4.8°C 20.1°F-6.6°C 87% Calm Calm -- 29.67 in1004.7 mb - 0.00 in0.0 mm 0.00 in0.0 mm
04:50 AM 23.5°F-4.7°C 20.2°F-6.6°C 87% 0.2 mph N0.3 kmh N 1.0 mph1.6 kmh 29.66 in1004.4 mb - 0.00 in0.0 mm 0.00 in0.0 mm
05:00 AM 23.4°F-4.8°C 20.1°F-6.6°C 87% Calm Calm 1.0 mph1.6 kmh 29.66 in1004.4 mb - 0.00 in0.0 mm 0.00 in0.0 mm
05:10 AM 23.3°F-4.8°C 20.0°F-6.7°C 87% 0.1 mph ENE0.2 kmh ENE 1.0 mph1.6 kmh 29.65 in1004.1 mb - 0.00 in0.0 mm 0.00 in0.0 mm
05:20 AM 23.3°F-4.8°C 19.8°F-6.8°C 86% 1.1 mph NNE1.8 kmh NNE 6.0 mph9.7 kmh 29.65 in1004.1 mb - 0.00 in0.0 mm 0.00 in0.0 mm
05:30 AM 23.4°F-4.8°C 19.8°F-6.8°C 86% 0.1 mph E0.2 kmh E 2.0 mph3.2 kmh 29.65 in1004.1 mb - 0.00 in0.0 mm 0.00 in0.0 mm
05:40 AM 23.4°F-4.8°C 19.8°F-6.8°C 86% 0.3 mph E0.5 kmh E 2.0 mph3.2 kmh 29.66 in1004.4 mb - 0.00 in0.0 mm 0.00 in0.0 mm
05:50 AM 23.4°F-4.8°C 19.8°F-6.8°C 86% Calm Calm -- 29.67 in1004.7 mb - 0.00 in0.0 mm 0.00 in0.0 mm
06:00 AM 23.4°F-4.8°C 19.8°F-6.8°C 86% 0.3 mph NE0.5 kmh NE 1.0 mph1.6 kmh 29.66 in1004.4 mb - 0.00 in0.0 mm 0.00 in0.0 mm
06:10 AM 23.4°F-4.8°C 19.8°F-6.8°C 86% Calm Calm -- 29.66 in1004.4 mb - 0.00 in0.0 mm 0.00 in0.0 mm
06:20 AM 23.4°F-4.8°C 19.8°F-6.8°C 86% Calm Calm -- 29.66 in1004.4 mb - 0.00 in0.0 mm 0.00 in0.0 mm
06:30 AM 23.4°F-4.8°C 19.6°F-6.9°C 85% 0.1 mph ESE0.2 kmh ESE 1.0 mph1.6 kmh 29.67 in1004.7 mb - 0.00 in0.0 mm 0.00 in0.0 mm
06:40 AM 23.5°F-4.7°C 19.6°F-6.9°C 85% Calm Calm -- 29.69 in1005.4 mb - 0.00 in0.0 mm 0.00 in0.0 mm
06:50 AM 23.5°F-4.7°C 19.7°F-6.8°C 85% Calm Calm -- 29.69 in1005.4 mb - 0.00 in0.0 mm 0.00 in0.0 mm
07:00 AM 23.5°F-4.7°C 19.7°F-6.8°C 85% 0.2 mph NW0.3 kmh NW 1.0 mph1.6 kmh 29.70 in1005.8 mb - 0.00 in0.0 mm 0.00 in0.0 mm
07:10 AM 23.5°F-4.7°C 19.7°F-6.8°C 85% Calm Calm -- 29.70 in1005.8 mb - 0.00 in0.0 mm 0.00 in0.0 mm
07:20 AM 23.5°F-4.7°C 19.7°F-6.8°C 85% 0.1 mph NW0.2 kmh NW 1.0 mph1.6 kmh 29.69 in1005.4 mb - 0.00 in0.0 mm 0.00 in0.0 mm
07:30 AM 23.5°F-4.7°C 19.6°F-6.9°C 85% 0.2 mph N0.3 kmh N 1.0 mph1.6 kmh 29.69 in1005.4 mb - 0.00 in0.0 mm 0.00 in0.0 mm
07:40 AM 23.4°F-4.8°C 19.5°F-6.9°C 85% 0.4 mph SE0.6 kmh SE 2.0 mph3.2 kmh 29.69 in1005.4 mb - 0.00 in0.0 mm 0.00 in0.0 mm
07:50 AM 23.3°F-4.8°C 19.5°F-6.9°C 85% 0.2 mph NE0.3 kmh NE 3.0 mph4.8 kmh 29.69 in1005.4 mb - 0.00 in0.0 mm 0.00 in0.0 mm
08:00 AM 23.2°F-4.9°C 19.4°F-7.0°C 85% 0.9 mph NW1.4 kmh NW 2.0 mph3.2 kmh 29.69 in1005.4 mb - 0.00 in0.0 mm 0.00 in0.0 mm
08:10 AM 23.2°F-4.9°C 19.4°F-7.0°C 85% Calm Calm -- 29.69 in1005.4 mb - 0.00 in0.0 mm 0.00 in0.0 mm
08:20 AM 23.4°F-4.8°C 19.6°F-6.9°C 85% 0.5 mph E0.8 kmh E 2.0 mph3.2 kmh 29.69 in1005.4 mb - 0.00 in0.0 mm 0.00 in0.0 mm
08:30 AM 23.5°F-4.7°C 19.7°F-6.8°C 85% Calm Calm 1.0 mph1.6 kmh 29.70 in1005.8 mb - 0.00 in0.0 mm 0.00 in0.0 mm
08:40 AM 23.7°F-4.6°C 19.9°F-6.7°C 85% 0.1 mph E0.2 kmh E 1.0 mph1.6 kmh 29.69 in1005.4 mb - 0.00 in0.0 mm 0.00 in0.0 mm
08:50 AM 23.9°F-4.5°C 20.0°F-6.7°C 85% 0.3 mph NW0.5 kmh NW 1.0 mph1.6 kmh 29.69 in1005.4 mb - 0.00 in0.0 mm 0.00 in0.0 mm
09:00 AM 24.1°F-4.4°C 20.2°F-6.6°C 85% 0.2 mph NNE0.3 kmh NNE 1.0 mph1.6 kmh 29.68 in1005.1 mb - 0.00 in0.0 mm 0.00 in0.0 mm
09:10 AM 24.4°F-4.2°C 20.3°F-6.5°C 84% 0.4 mph W0.6 kmh W 2.0 mph3.2 kmh 29.67 in1004.7 mb - 0.00 in0.0 mm 0.00 in0.0 mm
09:20 AM 24.6°F-4.1°C 20.5°F-6.4°C 84% 0.7 mph NNW1.1 kmh NNW 3.0 mph4.8 kmh 29.66 in1004.4 mb - 0.00 in0.0 mm 0.00 in0.0 mm
09:30 AM 24.9°F-3.9°C 20.7°F-6.3°C 84% 1.2 mph NNW1.9 kmh NNW 2.0 mph3.2 kmh 29.66 in1004.4 mb - 0.00 in0.0 mm 0.00 in0.0 mm
09:40 AM 25.3°F-3.7°C 20.5°F-6.4°C 82% 0.6 mph N1.0 kmh N 2.0 mph3.2 kmh 29.65 in1004.1 mb - 0.00 in0.0 mm 0.00 in0.0 mm
09:50 AM 25.4°F-3.7°C 20.9°F-6.2°C 83% 0.4 mph E0.6 kmh E 2.0 mph3.2 kmh 29.65 in1004.1 mb - 0.00 in0.0 mm 0.00 in0.0 mm
10:00 AM 25.9°F-3.4°C 21.2°F-6.0°C 82% Calm Calm 1.0 mph1.6 kmh 29.65 in1004.1 mb - 0.00 in0.0 mm 0.00 in0.0 mm
10:10 AM 26.2°F-3.2°C 21.2°F-6.0°C 81% 0.1 mph NE0.2 kmh NE 2.0 mph3.2 kmh 29.64 in1003.7 mb - 0.00 in0.0 mm 0.00 in0.0 mm
10:20 AM 27.0°F-2.8°C 22.3°F-5.4°C 82% Calm Calm -- 29.64 in1003.7 mb - 0.00 in0.0 mm 0.00 in0.0 mm
10:30 AM 27.6°F-2.4°C 22.2°F-5.4°C 80% 1.1 mph NNW1.8 kmh NNW 2.0 mph3.2 kmh 29.64 in1003.7 mb - 0.00 in0.0 mm 0.00 in0.0 mm
10:40 AM 26.9°F-2.8°C 21.6°F-5.8°C 80% 0.9 mph NNE1.4 kmh NNE 1.0 mph1.6 kmh 29.63 in1003.4 mb - 0.00 in0.0 mm 0.00 in0.0 mm
10:50 AM 27.3°F-2.6°C 22.2°F-5.4°C 81% 1.7 mph W2.7 kmh W 6.0 mph9.7 kmh 29.63 in1003.4 mb - 0.00 in0.0 mm 0.00 in0.0 mm
11:00 AM 27.3°F-2.6°C 22.2°F-5.4°C 81% 1.1 mph W1.8 kmh W 2.0 mph3.2 kmh 29.63 in1003.4 mb - 0.00 in0.0 mm 0.00 in0.0 mm
11:10 AM 27.8°F-2.3°C 22.4°F-5.3°C 80% 0.8 mph WSW1.3 kmh WSW 4.0 mph6.4 kmh 29.62 in1003.0 mb - 0.00 in0.0 mm 0.00 in0.0 mm
11:20 AM 28.0°F-2.2°C 22.9°F-5.1°C 81% 1.5 mph NW2.4 kmh NW 5.0 mph8.0 kmh 29.61 in1002.7 mb - 0.00 in0.0 mm 0.00 in0.0 mm
11:40 AM 28.6°F-1.9°C 23.2°F-4.9°C 80% 1.5 mph WNW2.4 kmh WNW 6.0 mph9.7 kmh 29.60 in1002.4 mb - 0.00 in0.0 mm 0.00 in0.0 mm
11:50 AM 28.5°F-1.9°C 22.9°F-5.1°C 79% 2.6 mph WNW4.2 kmh WNW 2.0 mph3.2 kmh 29.59 in1002.0 mb - 0.00 in0.0 mm 0.00 in0.0 mm
12:00 PM 29.0°F-1.7°C 23.0°F-5.0°C 78% 2.4 mph SW3.9 kmh SW 5.0 mph8.0 kmh 29.59 in1002.0 mb - 0.00 in0.0 mm 0.00 in0.0 mm
12:10 PM 28.9°F-1.7°C 22.9°F-5.1°C 78% 2.5 mph WSW4.0 kmh WSW 6.0 mph9.7 kmh 29.59 in1002.0 mb - 0.00 in0.0 mm 0.00 in0.0 mm
12:20 PM 29.2°F-1.6°C 22.9°F-5.1°C 77% 2.9 mph SW4.7 kmh SW 4.0 mph6.4 kmh 29.58 in1001.7 mb - 0.00 in0.0 mm 0.00 in0.0 mm
12:30 PM 29.7°F-1.3°C 23.4°F-4.8°C 77% Calm Calm 1.0 mph1.6 kmh 29.58 in1001.7 mb - 0.00 in0.0 mm 0.00 in0.0 mm
12:40 PM 30.2°F-1.0°C 24.1°F-4.4°C 78% 0.4 mph WSW0.6 kmh WSW 1.0 mph1.6 kmh 29.57 in1001.4 mb - 0.00 in0.0 mm 0.00 in0.0 mm
12:50 PM 30.2°F-1.0°C 23.5°F-4.7°C 76% 1.2 mph W1.9 kmh W 5.0 mph8.0 kmh 29.57 in1001.4 mb - 0.00 in0.0 mm 0.00 in0.0 mm
01:00 PM 30.1°F-1.1°C 23.5°F-4.7°C 76% 0.7 mph WNW1.1 kmh WNW 3.0 mph4.8 kmh 29.57 in1001.4 mb - 0.00 in0.0 mm 0.00 in0.0 mm
01:10 PM 30.4°F-0.9°C 23.7°F-4.6°C 76% 0.6 mph SW1.0 kmh SW 3.0 mph4.8 kmh 29.57 in1001.4 mb - 0.00 in0.0 mm 0.00 in0.0 mm
01:20 PM 30.7°F-0.7°C 23.7°F-4.6°C 75% 0.6 mph WNW1.0 kmh WNW 3.0 mph4.8 kmh 29.57 in1001.4 mb - 0.00 in0.0 mm 0.00 in0.0 mm
01:30 PM 30.7°F-0.7°C 23.4°F-4.8°C 74% 2.1 mph WNW3.4 kmh WNW 4.0 mph6.4 kmh 29.57 in1001.4 mb - 0.00 in0.0 mm 0.00 in0.0 mm
01:40 PM 30.4°F-0.9°C 23.1°F-4.9°C 74% 3.0 mph WSW4.8 kmh WSW 5.0 mph8.0 kmh 29.57 in1001.4 mb - 0.00 in0.0 mm 0.00 in0.0 mm
01:50 PM 30.4°F-0.9°C 23.1°F-4.9°C 74% 1.9 mph SW3.1 kmh SW 3.0 mph4.8 kmh 29.57 in1001.4 mb - 0.00 in0.0 mm 0.00 in0.0 mm
02:00 PM 30.5°F-0.8°C 23.2°F-4.9°C 74% 1.5 mph NW2.4 kmh NW 3.0 mph4.8 kmh 29.57 in1001.4 mb - 0.00 in0.0 mm 0.00 in0.0 mm
02:10 PM 31.0°F-0.6°C 23.7°F-4.6°C 74% 0.4 mph SW0.6 kmh SW 2.0 mph3.2 kmh 29.57 in1001.4 mb - 0.00 in0.0 mm 0.00 in0.0 mm
02:20 PM 31.8°F-0.1°C 24.1°F-4.4°C 73% 0.3 mph S0.5 kmh S 1.0 mph1.6 kmh 29.57 in1001.4 mb - 0.00 in0.0 mm 0.00 in0.0 mm
02:30 PM 31.7°F-0.2°C 23.7°F-4.6°C 72% 0.4 mph SW0.6 kmh SW 1.0 mph1.6 kmh 29.56 in1001.0 mb - 0.00 in0.0 mm 0.00 in0.0 mm
02:40 PM 31.9°F-0.1°C 24.2°F-4.3°C 73% Calm Calm 1.0 mph1.6 kmh 29.56 in1001.0 mb - 0.00 in0.0 mm 0.00 in0.0 mm
02:50 PM 32.2°F0.1°C 24.9°F-3.9°C 74% 0.1 mph E0.2 kmh E 1.0 mph1.6 kmh 29.56 in1001.0 mb - 0.00 in0.0 mm 0.00 in0.0 mm
03:00 PM 32.0°F0.0°C 24.6°F-4.1°C 74% 0.9 mph S1.4 kmh S 2.0 mph3.2 kmh 29.56 in1001.0 mb - 0.00 in0.0 mm 0.00 in0.0 mm
03:10 PM 32.4°F0.2°C 25.3°F-3.7°C 75% 0.1 mph WNW0.2 kmh WNW 1.0 mph1.6 kmh 29.56 in1001.0 mb - 0.00 in0.0 mm 0.00 in0.0 mm
03:20 PM 32.6°F0.3°C 25.2°F-3.8°C 74% 0.2 mph NE0.3 kmh NE 1.0 mph1.6 kmh 29.57 in1001.4 mb - 0.00 in0.0 mm 0.00 in0.0 mm
03:30 PM 32.6°F0.3°C 24.9°F-3.9°C 73% 1.5 mph SW2.4 kmh SW 4.0 mph6.4 kmh 29.57 in1001.4 mb - 0.00 in0.0 mm 0.00 in0.0 mm
03:40 PM 32.8°F0.4°C 25.1°F-3.8°C 73% Calm Calm -- 29.57 in1001.4 mb - 0.00 in0.0 mm 0.00 in0.0 mm
03:50 PM 33.4°F0.8°C 25.0°F-3.9°C 71% 0.4 mph SW0.6 kmh SW 1.0 mph1.6 kmh 29.57 in1001.4 mb - 0.00 in0.0 mm 0.00 in0.0 mm
04:00 PM 33.1°F0.6°C 25.1°F-3.8°C 72% Calm Calm -- 29.57 in1001.4 mb - 0.00 in0.0 mm 0.00 in0.0 mm
04:10 PM 33.0°F0.6°C 24.9°F-3.9°C 72% 0.2 mph ESE0.3 kmh ESE 1.0 mph1.6 kmh 29.57 in1001.4 mb - 0.00 in0.0 mm 0.00 in0.0 mm
04:20 PM 33.2°F0.7°C 25.5°F-3.6°C 73% Calm Calm 1.0 mph1.6 kmh 29.57 in1001.4 mb - 0.00 in0.0 mm 0.00 in0.0 mm
04:30 PM 33.5°F0.8°C 25.1°F-3.8°C 71% Calm Calm 1.0 mph1.6 kmh 29.57 in1001.4 mb - 0.00 in0.0 mm 0.00 in0.0 mm
04:40 PM 32.5°F0.3°C 24.8°F-4.0°C 73% Calm Calm -- 29.57 in1001.4 mb - 0.00 in0.0 mm 0.00 in0.0 mm
04:50 PM 32.6°F0.3°C 25.2°F-3.8°C 74% Calm Calm -- 29.57 in1001.4 mb - 0.00 in0.0 mm 0.00 in0.0 mm
05:00 PM 32.1°F0.1°C 24.7°F-4.1°C 74% Calm Calm -- 29.58 in1001.7 mb - 0.00 in0.0 mm 0.00 in0.0 mm
05:10 PM 31.6°F-0.2°C 24.6°F-4.1°C 75% 0.1 mph SE0.2 kmh SE -- 29.58 in1001.7 mb - 0.00 in0.0 mm 0.00 in0.0 mm
05:20 PM 31.1°F-0.5°C 24.4°F-4.2°C 76% Calm Calm 1.0 mph1.6 kmh 29.59 in1002.0 mb - 0.00 in0.0 mm 0.00 in0.0 mm
05:30 PM 30.7°F-0.7°C 24.3°F-4.3°C 77% Calm Calm -- 29.59 in1002.0 mb - 0.00 in0.0 mm 0.00 in0.0 mm
05:40 PM 30.6°F-0.8°C 24.6°F-4.1°C 78% Calm Calm -- 29.59 in1002.0 mb - 0.00 in0.0 mm 0.00 in0.0 mm
05:50 PM 30.5°F-0.8°C 24.8°F-4.0°C 79% 0.3 mph NE0.5 kmh NE 1.0 mph1.6 kmh 29.59 in1002.0 mb - 0.00 in0.0 mm 0.00 in0.0 mm
06:00 PM 30.3°F-0.9°C 24.6°F-4.1°C 79% Calm Calm -- 29.59 in1002.0 mb - 0.00 in0.0 mm 0.00 in0.0 mm
06:10 PM 30.1°F-1.1°C 24.4°F-4.2°C 79% Calm Calm -- 29.60 in1002.4 mb - 0.00 in0.0 mm 0.00 in0.0 mm
06:20 PM 30.0°F-1.1°C 24.6°F-4.1°C 80% Calm Calm -- 29.60 in1002.4 mb - 0.00 in0.0 mm 0.00 in0.0 mm
06:30 PM 30.1°F-1.1°C 25.0°F-3.9°C 81% Calm Calm -- 29.60 in1002.4 mb - 0.00 in0.0 mm 0.00 in0.0 mm
06:40 PM 29.9°F-1.2°C 24.5°F-4.2°C 80% Calm Calm -- 29.61 in1002.7 mb - 0.00 in0.0 mm 0.00 in0.0 mm
06:50 PM 29.9°F-1.2°C 24.4°F-4.2°C 80% Calm Calm -- 29.61 in1002.7 mb - 0.00 in0.0 mm 0.00 in0.0 mm
07:00 PM 29.8°F-1.2°C 24.7°F-4.1°C 81% Calm Calm -- 29.60 in1002.4 mb - 0.00 in0.0 mm 0.00 in0.0 mm
07:10 PM 29.9°F-1.2°C 24.7°F-4.1°C 81% Calm Calm -- 29.61 in1002.7 mb - 0.00 in0.0 mm 0.00 in0.0 mm
07:20 PM 30.0°F-1.1°C 24.9°F-3.9°C 81% Calm Calm -- 29.61 in1002.7 mb - 0.00 in0.0 mm 0.00 in0.0 mm
07:30 PM 30.1°F-1.1°C 24.7°F-4.1°C 80% Calm Calm -- 29.61 in1002.7 mb - 0.00 in0.0 mm 0.00 in0.0 mm
07:40 PM 30.1°F-1.1°C 24.7°F-4.1°C 80% Calm Calm -- 29.61 in1002.7 mb - 0.00 in0.0 mm 0.00 in0.0 mm
07:50 PM 30.0°F-1.1°C 24.9°F-3.9°C 81% Calm Calm 1.0 mph1.6 kmh 29.61 in1002.7 mb - 0.00 in0.0 mm 0.00 in0.0 mm
08:00 PM 29.9°F-1.2°C 24.8°F-4.0°C 81% 0.4 mph SE0.6 kmh SE -- 29.61 in1002.7 mb - 0.00 in0.0 mm 0.00 in0.0 mm
08:10 PM 29.7°F-1.3°C 24.9°F-3.9°C 82% 0.1 mph E0.2 kmh E 1.0 mph1.6 kmh 29.61 in1002.7 mb - 0.00 in0.0 mm 0.00 in0.0 mm
08:20 PM 29.6°F-1.3°C 25.1°F-3.8°C 83% 0.2 mph NW0.3 kmh NW 1.0 mph1.6 kmh 29.61 in1002.7 mb - 0.00 in0.0 mm 0.00 in0.0 mm
08:30 PM 29.5°F-1.4°C 25.3°F-3.7°C 84% Calm Calm -- 29.61 in1002.7 mb - 0.00 in0.0 mm 0.00 in0.0 mm
08:40 PM 29.4°F-1.4°C 25.2°F-3.8°C 84% Calm Calm -- 29.61 in1002.7 mb - 0.00 in0.0 mm 0.00 in0.0 mm
08:50 PM 29.3°F-1.5°C 25.1°F-3.8°C 84% Calm Calm -- 29.61 in1002.7 mb - 0.00 in0.0 mm 0.00 in0.0 mm
09:00 PM 29.3°F-1.5°C 25.4°F-3.7°C 85% Calm Calm 1.0 mph1.6 kmh 29.61 in1002.7 mb - 0.00 in0.0 mm 0.00 in0.0 mm
09:10 PM 29.1°F-1.6°C 25.2°F-3.8°C 85% Calm Calm -- 29.61 in1002.7 mb - 0.00 in0.0 mm 0.00 in0.0 mm
09:20 PM 28.9°F-1.7°C 25.2°F-3.8°C 86% Calm Calm -- 29.61 in1002.7 mb - 0.00 in0.0 mm 0.00 in0.0 mm
09:30 PM 28.7°F-1.8°C 25.0°F-3.9°C 86% Calm Calm -- 29.61 in1002.7 mb - 0.00 in0.0 mm 0.00 in0.0 mm
09:40 PM 28.6°F-1.9°C 24.9°F-3.9°C 86% Calm Calm -- 29.61 in1002.7 mb - 0.00 in0.0 mm 0.00 in0.0 mm
09:50 PM 28.6°F-1.9°C 25.2°F-3.8°C 87% 0.5 mph NE0.8 kmh NE 1.0 mph1.6 kmh 29.61 in1002.7 mb - 0.00 in0.0 mm 0.00 in0.0 mm
10:00 PM 28.5°F-1.9°C 24.9°F-3.9°C 86% Calm Calm -- 29.61 in1002.7 mb - 0.00 in0.0 mm 0.00 in0.0 mm
10:10 PM 28.3°F-2.1°C 24.9°F-3.9°C 87% Calm Calm 1.0 mph1.6 kmh 29.61 in1002.7 mb - 0.00 in0.0 mm 0.00 in0.0 mm
10:20 PM 28.1°F-2.2°C 24.7°F-4.1°C 87% Calm Calm -- 29.61 in1002.7 mb - 0.00 in0.0 mm 0.00 in0.0 mm
10:30 PM 28.0°F-2.2°C 24.6°F-4.1°C 87% Calm Calm -- 29.60 in1002.4 mb - 0.00 in0.0 mm 0.00 in0.0 mm
10:40 PM 27.9°F-2.3°C 24.5°F-4.2°C 87% Calm Calm -- 29.60 in1002.4 mb - 0.00 in0.0 mm 0.00 in0.0 mm
10:50 PM 27.8°F-2.3°C 24.4°F-4.2°C 87% Calm Calm -- 29.59 in1002.0 mb - 0.00 in0.0 mm 0.00 in0.0 mm
11:00 PM 27.6°F-2.4°C 24.2°F-4.3°C 87% Calm Calm -- 29.59 in1002.0 mb - 0.00 in0.0 mm 0.00 in0.0 mm
11:10 PM 27.4°F-2.6°C 24.0°F-4.4°C 87% Calm Calm -- 29.60 in1002.4 mb - 0.00 in0.0 mm 0.00 in0.0 mm
11:20 PM 27.0°F-2.8°C 23.7°F-4.6°C 87% Calm Calm -- 29.60 in1002.4 mb - 0.00 in0.0 mm 0.00 in0.0 mm
11:30 PM 27.1°F-2.7°C 24.0°F-4.4°C 88% Calm Calm -- 29.60 in1002.4 mb - 0.00 in0.0 mm 0.00 in0.0 mm
11:40 PM 28.0°F-2.2°C 24.9°F-3.9°C 88% Calm Calm -- 29.60 in1002.4 mb - 0.00 in0.0 mm 0.00 in0.0 mm
11:50 PM 28.3°F-2.1°C 24.6°F-4.1°C 86% Calm Calm -- 29.60 in1002.4 mb - 0.00 in0.0 mm 0.00 in0.0 mm